Terminal Aerodrome Forecast
Issued by NWS

Home | Current Version | Previous Version | Text Only | Print | Product List | Glossary On
Versions: 1 2 3 4 5 6 7 8 9 10 11 12 13 14 15 16 17 18 19 20 21 22 23
000
FTUS43 KDTX 221700
TAFDET
TAF
KDET 221738Z 2218/2318 14005KT P6SM SCT028 BKN040
     FM230100 08005KT P6SM SCT050 BKN120 OVC250
     FM230900 05005KT 4SM BR FEW015 SCT120
     FM231300 06004KT P6SM SCT040 SCT150=

USA.gov is the U.S. government's official web portal to all federal, state and local government web resources and services.